sensor_id;sensor_type;location;lat;lon;timestamp;pressure;altitude;pressure_sealevel;temperature
11926;BMP180;6022;48.768;18.608;2023-07-20T00:02:05;97716.75;;;21.92
11926;BMP180;6022;48.768;18.608;2023-07-20T00:04:35;97719.56;;;21.97
11926;BMP180;6022;48.768;18.608;2023-07-20T00:07:06;97721.22;;;22.04
11926;BMP180;6022;48.768;18.608;2023-07-20T00:09:39;97722.41;;;22.02
11926;BMP180;6022;48.768;18.608;2023-07-20T00:12:09;97721.00;;;21.99
11926;BMP180;6022;48.768;18.608;2023-07-20T00:14:36;97713.00;;;21.95
11926;BMP180;6022;48.768;18.608;2023-07-20T00:17:13;97726.03;;;21.87
11926;BMP180;6022;48.768;18.608;2023-07-20T00:19:40;97729.16;;;21.82
11926;BMP180;6022;48.768;18.608;2023-07-20T00:22:08;97734.13;;;21.84
11926;BMP180;6022;48.768;18.608;2023-07-20T00:24:36;97748.16;;;21.75
11926;BMP180;6022;48.768;18.608;2023-07-20T00:27:07;97744.59;;;21.76
11926;BMP180;6022;48.768;18.608;2023-07-20T00:29:34;97746.91;;;21.71
11926;BMP180;6022;48.768;18.608;2023-07-20T00:32:02;97737.56;;;21.70
11926;BMP180;6022;48.768;18.608;2023-07-20T00:34:32;97730.34;;;21.65
11926;BMP180;6022;48.768;18.608;2023-07-20T00:37:00;97730.56;;;21.35
11926;BMP180;6022;48.768;18.608;2023-07-20T00:39:27;97729.88;;;21.27
11926;BMP180;6022;48.768;18.608;2023-07-20T00:41:54;97727.13;;;21.28
11926;BMP180;6022;48.768;18.608;2023-07-20T00:44:21;97720.97;;;21.29
11926;BMP180;6022;48.768;18.608;2023-07-20T00:46:49;97715.72;;;21.23
11926;BMP180;6022;48.768;18.608;2023-07-20T00:49:16;97721.78;;;21.16
11926;BMP180;6022;48.768;18.608;2023-07-20T00:51:49;97718.06;;;21.04
11926;BMP180;6022;48.768;18.608;2023-07-20T00:54:16;97718.50;;;20.93
11926;BMP180;6022;48.768;18.608;2023-07-20T00:56:44;97718.41;;;21.01
11926;BMP180;6022;48.768;18.608;2023-07-20T00:59:13;97715.66;;;21.02
11926;BMP180;6022;48.768;18.608;2023-07-20T01:01:40;97715.09;;;21.07
11926;BMP180;6022;48.768;18.608;2023-07-20T01:04:07;97705.25;;;21.10
11926;BMP180;6022;48.768;18.608;2023-07-20T01:06:49;97695.81;;;21.03
11926;BMP180;6022;48.768;18.608;2023-07-20T01:09:33;97682.38;;;20.64
11926;BMP180;6022;48.768;18.608;2023-07-20T01:12:22;97679.50;;;20.59
11926;BMP180;6022;48.768;18.608;2023-07-20T01:14:53;97676.03;;;20.52
11926;BMP180;6022;48.768;18.608;2023-07-20T01:17:21;97680.63;;;20.57
11926;BMP180;6022;48.768;18.608;2023-07-20T01:19:48;97687.41;;;20.58
11926;BMP180;6022;48.768;18.608;2023-07-20T01:30:23;97688.22;;;20.22
11926;BMP180;6022;48.768;18.608;2023-07-20T01:32:55;97699.56;;;20.13
11926;BMP180;6022;48.768;18.608;2023-07-20T01:35:30;97701.22;;;20.06
11926;BMP180;6022;48.768;18.608;2023-07-20T01:37:59;97710.38;;;19.86
11926;BMP180;6022;48.768;18.608;2023-07-20T01:40:27;97717.19;;;19.71
11926;BMP180;6022;48.768;18.608;2023-07-20T01:42:54;97714.31;;;19.67
11926;BMP180;6022;48.768;18.608;2023-07-20T01:45:21;97716.84;;;19.74
11926;BMP180;6022;48.768;18.608;2023-07-20T01:47:49;97708.47;;;19.80
11926;BMP180;6022;48.768;18.608;2023-07-20T01:50:16;97714.75;;;19.86
11926;BMP180;6022;48.768;18.608;2023-07-20T01:52:43;97716.44;;;19.93
11926;BMP180;6022;48.768;18.608;2023-07-20T01:55:10;97730.22;;;20.00
11926;BMP180;6022;48.768;18.608;2023-07-20T01:57:38;97725.72;;;20.02
11926;BMP180;6022;48.768;18.608;2023-07-20T02:00:06;97714.63;;;20.02
11926;BMP180;6022;48.768;18.608;2023-07-20T02:02:36;97719.84;;;19.94
11926;BMP180;6022;48.768;18.608;2023-07-20T02:05:04;97717.72;;;19.97
11926;BMP180;6022;48.768;18.608;2023-07-20T02:07:31;97722.63;;;19.84
11926;BMP180;6022;48.768;18.608;2023-07-20T02:09:58;97713.84;;;19.63
11926;BMP180;6022;48.768;18.608;2023-07-20T02:12:26;97723.31;;;19.70
11926;BMP180;6022;48.768;18.608;2023-07-20T02:14:53;97726.88;;;19.69
11926;BMP180;6022;48.768;18.608;2023-07-20T02:17:20;97730.91;;;19.64
11926;BMP180;6022;48.768;18.608;2023-07-20T02:19:52;97721.41;;;19.65
11926;BMP180;6022;48.768;18.608;2023-07-20T02:22:19;97723.31;;;19.70
11926;BMP180;6022;48.768;18.608;2023-07-20T02:24:46;97719.63;;;19.73
11926;BMP180;6022;48.768;18.608;2023-07-20T02:27:14;97714.94;;;19.76
11926;BMP180;6022;48.768;18.608;2023-07-20T02:29:41;97722.47;;;19.78
11926;BMP180;6022;48.768;18.608;2023-07-20T02:32:09;97722.97;;;19.73
11926;BMP180;6022;48.768;18.608;2023-07-20T02:34:36;97726.88;;;19.69
11926;BMP180;6022;48.768;18.608;2023-07-20T02:37:04;97722.34;;;19.71
11926;BMP180;6022;48.768;18.608;2023-07-20T02:39:32;97722.34;;;19.71
11926;BMP180;6022;48.768;18.608;2023-07-20T02:41:59;97723.81;;;19.66
11926;BMP180;6022;48.768;18.608;2023-07-20T02:44:29;97731.72;;;19.65
11926;BMP180;6022;48.768;18.608;2023-07-20T02:46:57;97743.63;;;19.66
11926;BMP180;6022;48.768;18.608;2023-07-20T02:49:24;97743.31;;;19.61
11926;BMP180;6022;48.768;18.608;2023-07-20T02:51:51;97740.63;;;19.54
11926;BMP180;6022;48.768;18.608;2023-07-20T02:54:19;97735.69;;;19.45
11926;BMP180;6022;48.768;18.608;2023-07-20T02:56:46;97740.22;;;19.35
11926;BMP180;6022;48.768;18.608;2023-07-20T02:59:13;97746.97;;;19.36
11926;BMP180;6022;48.768;18.608;2023-07-20T03:01:40;97755.28;;;19.46
11926;BMP180;6022;48.768;18.608;2023-07-20T03:04:09;97759.13;;;19.50
11926;BMP180;6022;48.768;18.608;2023-07-20T03:06:39;97752.72;;;19.46
11926;BMP180;6022;48.768;18.608;2023-07-20T03:09:06;97761.84;;;19.10
11926;BMP180;6022;48.768;18.608;2023-07-20T03:11:33;97752.53;;;19.01
11926;BMP180;6022;48.768;18.608;2023-07-20T03:14:02;97762.53;;;18.96
11926;BMP180;6022;48.768;18.608;2023-07-20T03:16:29;97765.38;;;18.93
11926;BMP180;6022;48.768;18.608;2023-07-20T03:19:00;97759.97;;;18.49
11926;BMP180;6022;48.768;18.608;2023-07-20T03:21:27;97757.13;;;18.36
11926;BMP180;6022;48.768;18.608;2023-07-20T03:23:55;97761.59;;;18.42
11926;BMP180;6022;48.768;18.608;2023-07-20T03:26:22;97752.09;;;18.58
11926;BMP180;6022;48.768;18.608;2023-07-20T03:28:50;97761.41;;;18.75
11926;BMP180;6022;48.768;18.608;2023-07-20T03:31:17;97772.16;;;18.79
11926;BMP180;6022;48.768;18.608;2023-07-20T03:33:44;97770.88;;;18.91
11926;BMP180;6022;48.768;18.608;2023-07-20T03:36:11;97774.06;;;19.08
11926;BMP180;6022;48.768;18.608;2023-07-20T03:38:39;97781.75;;;19.16
11926;BMP180;6022;48.768;18.608;2023-07-20T03:41:06;97784.97;;;19.26
11926;BMP180;6022;48.768;18.608;2023-07-20T03:43:34;97792.63;;;19.34
11926;BMP180;6022;48.768;18.608;2023-07-20T03:46:02;97790.03;;;19.42
11926;BMP180;6022;48.768;18.608;2023-07-20T03:48:34;97795.81;;;19.44
11926;BMP180;6022;48.768;18.608;2023-07-20T03:51:01;97807.53;;;19.46
11926;BMP180;6022;48.768;18.608;2023-07-20T03:53:31;97816.19;;;19.53
11926;BMP180;6022;48.768;18.608;2023-07-20T03:55:58;97815.06;;;19.56
11926;BMP180;6022;48.768;18.608;2023-07-20T03:58:29;97819.25;;;19.57
11926;BMP180;6022;48.768;18.608;2023-07-20T04:00:59;97823.09;;;19.61
11926;BMP180;6022;48.768;18.608;2023-07-20T04:03:26;97829.53;;;19.57
11926;BMP180;6022;48.768;18.608;2023-07-20T04:05:54;97828.75;;;19.56
11926;BMP180;6022;48.768;18.608;2023-07-20T04:08:28;97827.91;;;19.56
11926;BMP180;6022;48.768;18.608;2023-07-20T04:10:55;97828.66;;;19.34
11926;BMP180;6022;48.768;18.608;2023-07-20T04:13:22;97839.22;;;19.39
11926;BMP180;6022;48.768;18.608;2023-07-20T04:15:49;97836.31;;;19.50
11926;BMP180;6022;48.768;18.608;2023-07-20T04:18:16;97843.53;;;19.54
11926;BMP180;6022;48.768;18.608;2023-07-20T04:20:44;97846.41;;;19.59
11926;BMP180;6022;48.768;18.608;2023-07-20T04:23:12;97833.06;;;19.56
11926;BMP180;6022;48.768;18.608;2023-07-20T04:25:40;97838.84;;;19.58
11926;BMP180;6022;48.768;18.608;2023-07-20T04:28:10;97826.50;;;19.53
11926;BMP180;6022;48.768;18.608;2023-07-20T04:30:39;97825.09;;;19.35
11926;BMP180;6022;48.768;18.608;2023-07-20T04:33:07;97823.94;;;19.45
11926;BMP180;6022;48.768;18.608;2023-07-20T04:35:56;97831.41;;;19.70
11926;BMP180;6022;48.768;18.608;2023-07-20T04:38:24;97830.88;;;19.91
11926;BMP180;6022;48.768;18.608;2023-07-20T04:40:51;97828.72;;;20.02
11926;BMP180;6022;48.768;18.608;2023-07-20T04:43:21;97838.56;;;20.21
11926;BMP180;6022;48.768;18.608;2023-07-20T04:46:14;97834.34;;;20.28
11926;BMP180;6022;48.768;18.608;2023-07-20T04:48:55;97833.50;;;20.57
11926;BMP180;6022;48.768;18.608;2023-07-20T04:51:31;97844.25;;;20.69
11926;BMP180;6022;48.768;18.608;2023-07-20T04:54:09;97845.34;;;20.74
11926;BMP180;6022;48.768;18.608;2023-07-20T04:56:45;97840.69;;;20.70
11926;BMP180;6022;48.768;18.608;2023-07-20T04:59:26;97841.03;;;20.67
11926;BMP180;6022;48.768;18.608;2023-07-20T05:01:55;97840.81;;;20.76
11926;BMP180;6022;48.768;18.608;2023-07-20T05:04:24;97846.19;;;20.89
11926;BMP180;6022;48.768;18.608;2023-07-20T05:06:55;97844.31;;;20.97
11926;BMP180;6022;48.768;18.608;2023-07-20T05:10:11;97849.34;;;21.27
11926;BMP180;6022;48.768;18.608;2023-07-20T05:12:44;97845.63;;;22.01
11926;BMP180;6022;48.768;18.608;2023-07-20T05:15:11;97846.56;;;22.71
11926;BMP180;6022;48.768;18.608;2023-07-20T05:17:39;97841.25;;;22.16
11926;BMP180;6022;48.768;18.608;2023-07-20T05:20:22;97833.81;;;22.13
11926;BMP180;6022;48.768;18.608;2023-07-20T05:22:56;97842.19;;;22.71
11926;BMP180;6022;48.768;18.608;2023-07-20T05:25:45;97844.09;;;22.63
11926;BMP180;6022;48.768;18.608;2023-07-20T05:28:20;97843.38;;;22.89
11926;BMP180;6022;48.768;18.608;2023-07-20T05:30:53;97841.41;;;23.18
11926;BMP180;6022;48.768;18.608;2023-07-20T05:33:30;97846.69;;;24.90
11926;BMP180;6022;48.768;18.608;2023-07-20T05:36:14;97831.44;;;26.88
11926;BMP180;6022;48.768;18.608;2023-07-20T05:38:42;97840.59;;;28.86
11926;BMP180;6022;48.768;18.608;2023-07-20T05:41:20;97831.22;;;29.53
11926;BMP180;6022;48.768;18.608;2023-07-20T05:44:01;97838.13;;;30.92
11926;BMP180;6022;48.768;18.608;2023-07-20T05:46:38;97826.34;;;31.81
11926;BMP180;6022;48.768;18.608;2023-07-20T05:49:23;97837.09;;;31.25
11926;BMP180;6022;48.768;18.608;2023-07-20T05:51:57;97828.03;;;31.49
11926;BMP180;6022;48.768;18.608;2023-07-20T05:54:25;97829.88;;;31.70
11926;BMP180;6022;48.768;18.608;2023-07-20T05:56:59;97833.91;;;32.41
11926;BMP180;6022;48.768;18.608;2023-07-20T05:59:33;97826.94;;;32.51
11926;BMP180;6022;48.768;18.608;2023-07-20T06:02:11;97823.28;;;32.83
11926;BMP180;6022;48.768;18.608;2023-07-20T06:04:45;97827.34;;;32.96
11926;BMP180;6022;48.768;18.608;2023-07-20T06:07:16;97824.63;;;33.22
11926;BMP180;6022;48.768;18.608;2023-07-20T06:09:49;97825.59;;;33.11
11926;BMP180;6022;48.768;18.608;2023-07-20T06:12:17;97819.97;;;33.29
11926;BMP180;6022;48.768;18.608;2023-07-20T06:15:04;97826.31;;;33.79
11926;BMP180;6022;48.768;18.608;2023-07-20T06:17:42;97829.16;;;33.67
11926;BMP180;6022;48.768;18.608;2023-07-20T06:20:16;97837.97;;;33.93
11926;BMP180;6022;48.768;18.608;2023-07-20T06:23:10;97831.31;;;34.46
11926;BMP180;6022;48.768;18.608;2023-07-20T06:25:45;97824.22;;;34.61
11926;BMP180;6022;48.768;18.608;2023-07-20T06:28:22;97826.84;;;34.51
11926;BMP180;6022;48.768;18.608;2023-07-20T06:30:52;97833.97;;;34.75
11926;BMP180;6022;48.768;18.608;2023-07-20T06:33:30;97839.56;;;34.79
11926;BMP180;6022;48.768;18.608;2023-07-20T06:36:07;97828.47;;;35.07
11926;BMP180;6022;48.768;18.608;2023-07-20T06:38:41;97837.94;;;35.42
11926;BMP180;6022;48.768;18.608;2023-07-20T06:41:53;97841.31;;;35.77
11926;BMP180;6022;48.768;18.608;2023-07-20T06:44:31;97837.34;;;35.70
11926;BMP180;6022;48.768;18.608;2023-07-20T06:47:01;97832.28;;;35.93
11926;BMP180;6022;48.768;18.608;2023-07-20T06:49:29;97833.41;;;35.72
11926;BMP180;6022;48.768;18.608;2023-07-20T06:53:04;97832.19;;;35.25
11926;BMP180;6022;48.768;18.608;2023-07-20T06:55:31;97838.59;;;35.97
11926;BMP180;6022;48.768;18.608;2023-07-20T06:58:28;97837.63;;;36.36
11926;BMP180;6022;48.768;18.608;2023-07-20T07:01:14;97836.44;;;36.04
11926;BMP180;6022;48.768;18.608;2023-07-20T07:03:55;97838.69;;;36.78
11926;BMP180;6022;48.768;18.608;2023-07-20T07:06:29;97832.72;;;36.96
11926;BMP180;6022;48.768;18.608;2023-07-20T07:09:20;97829.94;;;36.39
11926;BMP180;6022;48.768;18.608;2023-07-20T07:12:27;97826.03;;;37.03
11926;BMP180;6022;48.768;18.608;2023-07-20T07:14:54;97827.94;;;37.31
11926;BMP180;6022;48.768;18.608;2023-07-20T07:18:09;97827.00;;;37.17
11926;BMP180;6022;48.768;18.608;2023-07-20T07:21:09;97827.28;;;37.90
11926;BMP180;6022;48.768;18.608;2023-07-20T07:23:39;97829.97;;;37.39
11926;BMP180;6022;48.768;18.608;2023-07-20T07:26:09;97825.75;;;35.66
11926;BMP180;6022;48.768;18.608;2023-07-20T07:28:37;97833.22;;;36.98
11926;BMP180;6022;48.768;18.608;2023-07-20T07:31:10;97839.25;;;36.75
11926;BMP180;6022;48.768;18.608;2023-07-20T07:34:13;97828.19;;;36.15
11926;BMP180;6022;48.768;18.608;2023-07-20T07:36:44;97834.56;;;36.62
11926;BMP180;6022;48.768;18.608;2023-07-20T07:39:31;97838.06;;;37.24
11926;BMP180;6022;48.768;18.608;2023-07-20T07:42:27;97829.16;;;37.66
11926;BMP180;6022;48.768;18.608;2023-07-20T07:45:22;97832.56;;;37.95
11926;BMP180;6022;48.768;18.608;2023-07-20T07:47:58;97827.13;;;37.58
11926;BMP180;6022;48.768;18.608;2023-07-20T07:51:16;97835.00;;;38.10
11926;BMP180;6022;48.768;18.608;2023-07-20T07:54:00;97840.63;;;38.26
11926;BMP180;6022;48.768;18.608;2023-07-20T08:00:38;97838.13;;;38.71
11926;BMP180;6022;48.768;18.608;2023-07-20T08:03:32;97845.38;;;38.66
11926;BMP180;6022;48.768;18.608;2023-07-20T08:06:36;97839.47;;;38.69
11926;BMP180;6022;48.768;18.608;2023-07-20T08:09:06;97848.25;;;38.51
11926;BMP180;6022;48.768;18.608;2023-07-20T08:11:45;97861.44;;;38.15
11926;BMP180;6022;48.768;18.608;2023-07-20T08:15:16;97849.06;;;37.87
11926;BMP180;6022;48.768;18.608;2023-07-20T08:18:05;97850.53;;;37.98
11926;BMP180;6022;48.768;18.608;2023-07-20T08:20:38;97849.97;;;37.49
11926;BMP180;6022;48.768;18.608;2023-07-20T08:23:19;97846.44;;;37.82
11926;BMP180;6022;48.768;18.608;2023-07-20T08:26:13;97850.16;;;37.81
11926;BMP180;6022;48.768;18.608;2023-07-20T08:29:23;97854.72;;;37.24
11926;BMP180;6022;48.768;18.608;2023-07-20T08:32:13;97855.66;;;37.38
11926;BMP180;6022;48.768;18.608;2023-07-20T08:35:03;97857.25;;;37.62
11926;BMP180;6022;48.768;18.608;2023-07-20T08:37:34;97862.53;;;38.14
11926;BMP180;6022;48.768;18.608;2023-07-20T08:40:47;97853.56;;;37.63
11926;BMP180;6022;48.768;18.608;2023-07-20T08:43:42;97858.19;;;37.76
11926;BMP180;6022;48.768;18.608;2023-07-20T08:46:21;97871.81;;;37.65
11926;BMP180;6022;48.768;18.608;2023-07-20T08:48:59;97859.66;;;37.87
11926;BMP180;6022;48.768;18.608;2023-07-20T08:51:31;97853.84;;;37.85
11926;BMP180;6022;48.768;18.608;2023-07-20T08:54:17;97866.81;;;38.10
11926;BMP180;6022;48.768;18.608;2023-07-20T08:56:54;97865.31;;;37.52
11926;BMP180;6022;48.768;18.608;2023-07-20T08:59:28;97869.56;;;37.77
11926;BMP180;6022;48.768;18.608;2023-07-20T09:02:04;97866.34;;;37.56
11926;BMP180;6022;48.768;18.608;2023-07-20T09:04:35;97857.22;;;37.90
11926;BMP180;6022;48.768;18.608;2023-07-20T09:07:14;97873.84;;;37.73
11926;BMP180;6022;48.768;18.608;2023-07-20T09:09:59;97868.19;;;38.25
11926;BMP180;6022;48.768;18.608;2023-07-20T09:12:41;97876.88;;;38.31
11926;BMP180;6022;48.768;18.608;2023-07-20T10:32:11;97893.25;;;33.16
11926;BMP180;6022;48.768;18.608;2023-07-20T10:48:04;97887.47;;;31.60
11926;BMP180;6022;48.768;18.608;2023-07-20T10:50:35;97890.34;;;32.17
11926;BMP180;6022;48.768;18.608;2023-07-20T10:53:14;97874.75;;;32.32
11926;BMP180;6022;48.768;18.608;2023-07-20T10:55:43;97889.91;;;32.04
11926;BMP180;6022;48.768;18.608;2023-07-20T10:58:14;97877.88;;;31.87
11926;BMP180;6022;48.768;18.608;2023-07-20T11:01:01;97891.00;;;31.70
11926;BMP180;6022;48.768;18.608;2023-07-20T11:03:34;97889.09;;;32.67
11926;BMP180;6022;48.768;18.608;2023-07-20T11:09:09;97888.09;;;33.66
11926;BMP180;6022;48.768;18.608;2023-07-20T11:11:49;97894.59;;;32.92
11926;BMP180;6022;48.768;18.608;2023-07-20T11:14:23;97893.94;;;33.37
11926;BMP180;6022;48.768;18.608;2023-07-20T11:16:53;97887.66;;;33.79
11926;BMP180;6022;48.768;18.608;2023-07-20T11:19:26;97892.72;;;33.18
11926;BMP180;6022;48.768;18.608;2023-07-20T11:22:06;97883.97;;;33.08
11926;BMP180;6022;48.768;18.608;2023-07-20T11:24:40;97890.31;;;33.12
11926;BMP180;6022;48.768;18.608;2023-07-20T11:27:17;97894.19;;;32.52
11926;BMP180;6022;48.768;18.608;2023-07-20T11:30:18;97894.19;;;32.10
11926;BMP180;6022;48.768;18.608;2023-07-20T11:32:59;97886.81;;;31.86
11926;BMP180;6022;48.768;18.608;2023-07-20T11:35:48;97892.22;;;31.63
11926;BMP180;6022;48.768;18.608;2023-07-20T11:38:21;97888.38;;;31.17
11926;BMP180;6022;48.768;18.608;2023-07-20T11:41:00;97893.66;;;30.61
11926;BMP180;6022;48.768;18.608;2023-07-20T11:44:19;97899.16;;;30.48
11926;BMP180;6022;48.768;18.608;2023-07-20T11:51:48;97892.19;;;32.17
11926;BMP180;6022;48.768;18.608;2023-07-20T11:54:52;97895.59;;;32.60
11926;BMP180;6022;48.768;18.608;2023-07-20T11:58:35;97893.31;;;33.56
11926;BMP180;6022;48.768;18.608;2023-07-20T12:01:40;97893.38;;;34.17
11926;BMP180;6022;48.768;18.608;2023-07-20T12:04:56;97888.16;;;33.76
11926;BMP180;6022;48.768;18.608;2023-07-20T12:07:44;97881.59;;;34.34
11926;BMP180;6022;48.768;18.608;2023-07-20T12:10:32;97884.69;;;33.66
11926;BMP180;6022;48.768;18.608;2023-07-20T12:17:42;97889.28;;;33.85
11926;BMP180;6022;48.768;18.608;2023-07-20T12:21:20;97884.28;;;33.16
11926;BMP180;6022;48.768;18.608;2023-07-20T12:24:07;97889.66;;;32.95
11926;BMP180;6022;48.768;18.608;2023-07-20T12:27:13;97879.22;;;33.05
11926;BMP180;6022;48.768;18.608;2023-07-20T12:29:55;97879.44;;;32.99
11926;BMP180;6022;48.768;18.608;2023-07-20T12:32:42;97877.13;;;33.07
11926;BMP180;6022;48.768;18.608;2023-07-20T12:35:22;97875.25;;;32.77
11926;BMP180;6022;48.768;18.608;2023-07-20T12:38:04;97879.06;;;32.85
11926;BMP180;6022;48.768;18.608;2023-07-20T12:40:37;97872.66;;;33.39
11926;BMP180;6022;48.768;18.608;2023-07-20T12:43:13;97873.94;;;33.05
11926;BMP180;6022;48.768;18.608;2023-07-20T12:45:56;97864.22;;;32.27
11926;BMP180;6022;48.768;18.608;2023-07-20T12:48:36;97861.91;;;31.88
11926;BMP180;6022;48.768;18.608;2023-07-20T12:51:18;97862.34;;;32.01
11926;BMP180;6022;48.768;18.608;2023-07-20T12:54:08;97859.09;;;31.95
11926;BMP180;6022;48.768;18.608;2023-07-20T12:56:56;97864.66;;;31.44
11926;BMP180;6022;48.768;18.608;2023-07-20T12:59:47;97861.50;;;31.42
11926;BMP180;6022;48.768;18.608;2023-07-20T13:02:40;97852.66;;;31.48
11926;BMP180;6022;48.768;18.608;2023-07-20T13:05:11;97855.03;;;31.66
11926;BMP180;6022;48.768;18.608;2023-07-20T13:07:41;97866.19;;;31.78
11926;BMP180;6022;48.768;18.608;2023-07-20T13:10:12;97860.47;;;31.43
11926;BMP180;6022;48.768;18.608;2023-07-20T13:12:39;97847.41;;;31.48
11926;BMP180;6022;48.768;18.608;2023-07-20T13:15:17;97847.69;;;31.47
11926;BMP180;6022;48.768;18.608;2023-07-20T13:17:48;97849.50;;;31.30
11926;BMP180;6022;48.768;18.608;2023-07-20T13:20:26;97843.38;;;31.08
11926;BMP180;6022;48.768;18.608;2023-07-20T13:22:54;97843.91;;;30.78
11926;BMP180;6022;48.768;18.608;2023-07-20T13:25:26;97842.41;;;30.38
11926;BMP180;6022;48.768;18.608;2023-07-20T13:28:10;97829.72;;;30.18
11926;BMP180;6022;48.768;18.608;2023-07-20T13:30:37;97837.06;;;30.60
11926;BMP180;6022;48.768;18.608;2023-07-20T13:33:09;97840.41;;;30.72
11926;BMP180;6022;48.768;18.608;2023-07-20T13:35:46;97835.00;;;30.79
11926;BMP180;6022;48.768;18.608;2023-07-20T13:38:40;97836.91;;;30.67
11926;BMP180;6022;48.768;18.608;2023-07-20T13:41:19;97843.09;;;30.77
11926;BMP180;6022;48.768;18.608;2023-07-20T13:44:04;97843.31;;;30.87
11926;BMP180;6022;48.768;18.608;2023-07-20T13:46:48;97845.09;;;30.70
11926;BMP180;6022;48.768;18.608;2023-07-20T13:49:23;97855.88;;;30.57
11926;BMP180;6022;48.768;18.608;2023-07-20T13:51:52;97860.00;;;30.53
11926;BMP180;6022;48.768;18.608;2023-07-20T13:54:23;97852.53;;;30.46
11926;BMP180;6022;48.768;18.608;2023-07-20T13:56:56;97862.88;;;30.41
11926;BMP180;6022;48.768;18.608;2023-07-20T13:59:29;97866.94;;;30.09
11926;BMP180;6022;48.768;18.608;2023-07-20T14:01:59;97862.47;;;29.82
11926;BMP180;6022;48.768;18.608;2023-07-20T14:04:30;97872.34;;;29.46
11926;BMP180;6022;48.768;18.608;2023-07-20T14:07:06;97877.84;;;29.33
11926;BMP180;6022;48.768;18.608;2023-07-20T14:10:01;97873.66;;;28.91
11926;BMP180;6022;48.768;18.608;2023-07-20T14:12:39;97886.44;;;28.70
11926;BMP180;6022;48.768;18.608;2023-07-20T14:15:12;97900.16;;;28.48
11926;BMP180;6022;48.768;18.608;2023-07-20T14:17:43;97904.91;;;28.22
11926;BMP180;6022;48.768;18.608;2023-07-20T14:20:25;97912.97;;;28.03
11926;BMP180;6022;48.768;18.608;2023-07-20T14:23:01;97924.75;;;27.45
11926;BMP180;6022;48.768;18.608;2023-07-20T14:25:29;97929.69;;;27.29
11926;BMP180;6022;48.768;18.608;2023-07-20T14:27:57;97924.91;;;27.26
11926;BMP180;6022;48.768;18.608;2023-07-20T14:30:28;97929.63;;;26.74
11926;BMP180;6022;48.768;18.608;2023-07-20T14:33:01;97930.91;;;26.65
11926;BMP180;6022;48.768;18.608;2023-07-20T14:35:47;97940.16;;;26.92
11926;BMP180;6022;48.768;18.608;2023-07-20T14:38:25;97936.91;;;27.03
11926;BMP180;6022;48.768;18.608;2023-07-20T14:40:55;97931.91;;;27.01
11926;BMP180;6022;48.768;18.608;2023-07-20T14:43:29;97925.53;;;26.98
11926;BMP180;6022;48.768;18.608;2023-07-20T14:46:01;97919.16;;;26.87
11926;BMP180;6022;48.768;18.608;2023-07-20T14:48:58;97923.09;;;26.65
11926;BMP180;6022;48.768;18.608;2023-07-20T14:51:25;97921.63;;;26.76
11926;BMP180;6022;48.768;18.608;2023-07-20T14:54:06;97919.16;;;26.87
11926;BMP180;6022;48.768;18.608;2023-07-20T14:56:34;97926.09;;;26.99
11926;BMP180;6022;48.768;18.608;2023-07-20T14:59:10;97922.44;;;27.07
11926;BMP180;6022;48.768;18.608;2023-07-20T15:01:56;97923.63;;;27.11
11926;BMP180;6022;48.768;18.608;2023-07-20T15:04:55;97920.94;;;27.17
11926;BMP180;6022;48.768;18.608;2023-07-20T15:07:32;97924.09;;;27.26
11926;BMP180;6022;48.768;18.608;2023-07-20T15:10:02;97922.59;;;27.12
11926;BMP180;6022;48.768;18.608;2023-07-20T15:12:32;97916.84;;;26.73
11926;BMP180;6022;48.768;18.608;2023-07-20T15:15:13;97924.34;;;26.50
11926;BMP180;6022;48.768;18.608;2023-07-20T15:18:06;97915.81;;;26.37
11926;BMP180;6022;48.768;18.608;2023-07-20T15:20:38;97907.63;;;26.70
11926;BMP180;6022;48.768;18.608;2023-07-20T15:23:05;97910.72;;;26.55
11926;BMP180;6022;48.768;18.608;2023-07-20T15:25:33;97915.28;;;26.16
11926;BMP180;6022;48.768;18.608;2023-07-20T15:28:01;97909.28;;;26.09
11926;BMP180;6022;48.768;18.608;2023-07-20T15:30:30;97911.06;;;26.27
11926;BMP180;6022;48.768;18.608;2023-07-20T15:33:15;97914.31;;;26.04
11926;BMP180;6022;48.768;18.608;2023-07-20T15:35:43;97904.66;;;26.30
11926;BMP180;6022;48.768;18.608;2023-07-20T15:38:11;97915.75;;;26.50
11926;BMP180;6022;48.768;18.608;2023-07-20T15:40:43;97911.56;;;26.49
11926;BMP180;6022;48.768;18.608;2023-07-20T15:43:10;97907.41;;;26.41
11926;BMP180;6022;48.768;18.608;2023-07-20T15:45:41;97894.25;;;26.30
11926;BMP180;6022;48.768;18.608;2023-07-20T15:48:09;97900.19;;;26.37
11926;BMP180;6022;48.768;18.608;2023-07-20T15:50:37;97909.72;;;26.56
11926;BMP180;6022;48.768;18.608;2023-07-20T15:53:05;97907.03;;;26.68
11926;BMP180;6022;48.768;18.608;2023-07-20T15:55:32;97914.44;;;26.71
11926;BMP180;6022;48.768;18.608;2023-07-20T15:58:02;97909.56;;;26.81
11926;BMP180;6022;48.768;18.608;2023-07-20T16:00:29;97912.38;;;26.80
11926;BMP180;6022;48.768;18.608;2023-07-20T16:02:57;97915.19;;;26.85
11926;BMP180;6022;48.768;18.608;2023-07-20T16:05:24;97918.75;;;26.90
11926;BMP180;6022;48.768;18.608;2023-07-20T16:07:54;97921.19;;;26.85
11926;BMP180;6022;48.768;18.608;2023-07-20T16:10:23;97908.88;;;26.61
11926;BMP180;6022;48.768;18.608;2023-07-20T16:12:50;97917.31;;;26.63
11926;BMP180;6022;48.768;18.608;2023-07-20T16:15:19;97910.66;;;26.67
11926;BMP180;6022;48.768;18.608;2023-07-20T16:17:49;97905.00;;;26.77
11926;BMP180;6022;48.768;18.608;2023-07-20T16:20:17;97904.34;;;26.81
11926;BMP180;6022;48.768;18.608;2023-07-20T16:22:44;97897.97;;;26.77
11926;BMP180;6022;48.768;18.608;2023-07-20T16:25:16;97903.19;;;26.77
11926;BMP180;6022;48.768;18.608;2023-07-20T16:27:43;97898.38;;;26.74
11926;BMP180;6022;48.768;18.608;2023-07-20T16:30:11;97905.38;;;26.80
11926;BMP180;6022;48.768;18.608;2023-07-20T16:32:43;97911.28;;;26.63
11926;BMP180;6022;48.768;18.608;2023-07-20T16:35:10;97908.06;;;26.67
11926;BMP180;6022;48.768;18.608;2023-07-20T16:37:38;97907.63;;;26.70
11926;BMP180;6022;48.768;18.608;2023-07-20T16:40:08;97908.84;;;26.68
11926;BMP180;6022;48.768;18.608;2023-07-20T16:42:56;97912.69;;;26.59
11926;BMP180;6022;48.768;18.608;2023-07-20T16:45:28;97910.09;;;26.59
11926;BMP180;6022;48.768;18.608;2023-07-20T16:47:55;97912.91;;;26.58
11926;BMP180;6022;48.768;18.608;2023-07-20T16:50:23;97914.13;;;26.55
11926;BMP180;6022;48.768;18.608;2023-07-20T16:52:53;97917.38;;;26.51
11926;BMP180;6022;48.768;18.608;2023-07-20T16:55:24;97914.97;;;26.43